createdAt,value
2018-02-22T00:01:49.548Z,62.39
2018-02-22T00:02:50.011Z,62.37
2018-02-22T00:03:50.468Z,62.34
2018-02-22T00:04:50.936Z,62.36
2018-02-22T00:05:51.402Z,62.42
2018-02-22T00:06:51.866Z,62.39
2018-02-22T00:07:52.325Z,62.42
2018-02-22T00:08:52.790Z,62.39
2018-02-22T00:09:53.256Z,62.36
2018-02-22T00:10:53.921Z,62.39
2018-02-22T00:11:54.187Z,62.39
2018-02-22T00:12:54.649Z,62.46
2018-02-22T00:13:55.110Z,62.49
2018-02-22T00:14:55.569Z,62.49
2018-02-22T00:15:56.037Z,62.49
2018-02-22T00:16:56.503Z,62.41
2018-02-22T00:18:57.422Z,62.41
2018-02-22T00:19:57.890Z,62.36
2018-02-22T00:20:58.355Z,62.39
2018-02-22T00:21:58.820Z,62.36
2018-02-22T00:22:59.284Z,62.30
2018-02-22T00:23:59.746Z,62.28
2018-02-22T00:25:00.212Z,62.22
2018-02-22T00:26:00.669Z,62.22
2018-02-22T00:28:01.602Z,62.22
2018-02-22T00:29:02.066Z,62.22
2018-02-22T00:30:02.530Z,62.20
2018-02-22T00:31:03.045Z,62.22
2018-02-22T00:32:03.477Z,62.35
2018-02-22T00:33:03.922Z,62.43
2018-02-22T00:34:04.387Z,62.43
2018-02-22T00:35:04.847Z,62.42
2018-02-22T00:36:05.312Z,62.40
2018-02-22T00:37:05.769Z,62.50
2018-02-22T00:38:06.242Z,62.45
2018-02-22T00:40:07.165Z,62.34
2018-02-22T00:41:07.632Z,62.42
2018-02-22T00:42:08.095Z,62.42
2018-02-22T00:43:08.556Z,62.42
2018-02-22T00:44:09.016Z,62.36
2018-02-22T00:45:09.488Z,62.32
2018-02-22T00:48:10.871Z,62.34
2018-02-22T00:49:11.341Z,62.39
2018-02-22T00:50:11.804Z,62.36
2018-02-22T00:51:12.470Z,62.41
2018-02-22T00:52:12.730Z,62.65
2018-02-22T00:53:13.196Z,62.62
2018-02-22T00:54:13.657Z,62.59
2018-02-22T00:55:14.117Z,62.57
2018-02-22T00:56:14.583Z,62.62
2018-02-22T00:57:15.049Z,62.65
2018-02-22T00:58:15.564Z,62.72
2018-02-22T00:59:15.971Z,62.72
2018-02-22T01:01:16.902Z,62.93
2018-02-22T01:02:17.370Z,63.27
2018-02-22T01:03:17.881Z,63.12
2018-02-22T01:04:18.294Z,63.01
2018-02-22T01:05:18.757Z,63.12
2018-02-22T01:06:19.215Z,63.14
2018-02-22T01:07:19.685Z,63.07
2018-02-22T01:08:20.150Z,63.25
2018-02-22T01:09:20.612Z,63.25
2018-02-22T01:10:21.071Z,63.30
2018-02-22T01:11:21.544Z,63.33
2018-02-22T01:12:22.003Z,63.30
2018-02-22T01:13:22.669Z,63.27
2018-02-22T01:14:23.333Z,63.28
2018-02-22T01:15:23.443Z,63.28
2018-02-22T01:16:23.856Z,63.33
2018-02-22T01:17:24.314Z,63.40
2018-02-22T01:18:24.990Z,63.61
2018-02-22T01:19:25.249Z,63.56
2018-02-22T01:20:25.710Z,63.51
2018-02-22T01:21:26.175Z,63.59
2018-02-22T01:22:26.635Z,63.59
2018-02-22T01:23:27.106Z,63.56
2018-02-22T01:25:28.029Z,63.54
2018-02-22T01:26:28.496Z,63.77
2018-02-22T01:27:28.958Z,63.77
2018-02-22T01:28:29.413Z,63.64
2018-02-22T01:29:29.884Z,63.57
2018-02-22T01:30:30.347Z,63.59
2018-02-22T01:31:30.810Z,63.54
2018-02-22T01:32:31.275Z,63.59
2018-02-22T01:33:31.739Z,63.54
2018-02-22T01:34:32.204Z,63.46
2018-02-22T01:35:32.661Z,63.48
2018-02-22T01:36:33.137Z,63.54
2018-02-22T01:37:33.593Z,63.48
2018-02-22T01:38:34.058Z,63.64
2018-02-22T01:39:34.514Z,63.64
2018-02-22T01:41:35.446Z,63.71
2018-02-22T01:42:35.912Z,63.82
2018-02-22T01:43:36.577Z,63.85
2018-02-22T01:44:36.838Z,63.77
2018-02-22T01:45:37.302Z,63.85
2018-02-22T01:46:37.759Z,63.90
2018-02-22T01:47:38.230Z,63.92
2018-02-22T01:48:38.745Z,64.15
2018-02-22T01:49:39.154Z,64.28
2018-02-22T01:50:39.613Z,64.39
2018-02-22T01:51:40.136Z,64.44
2018-02-22T01:52:40.545Z,64.26
2018-02-22T01:53:41.061Z,64.46
2018-02-22T01:54:41.474Z,64.34
2018-02-22T01:55:41.936Z,64.44
2018-02-22T01:56:42.398Z,64.67
2018-02-22T01:57:42.858Z,64.80
2018-02-22T01:58:43.326Z,64.70
2018-02-22T01:59:43.790Z,64.55
2018-02-22T02:00:44.261Z,64.47
2018-02-22T02:01:44.710Z,64.36
2018-02-22T02:02:45.181Z,64.26
2018-02-22T02:03:45.694Z,64.23
2018-02-22T02:04:46.114Z,64.28
2018-02-22T02:05:46.571Z,64.51
2018-02-22T02:07:47.497Z,64.57
2018-02-22T02:08:47.962Z,64.48
2018-02-22T02:09:48.424Z,64.33
2018-02-22T02:10:48.889Z,64.25
2018-02-22T02:11:49.353Z,64.18
2018-02-22T02:12:49.814Z,64.20
2018-02-22T02:13:50.278Z,64.33
2018-02-22T02:14:50.743Z,64.28
2018-02-22T02:15:51.208Z,64.38
2018-02-22T02:16:51.670Z,64.26
2018-02-22T02:17:52.134Z,64.18
2018-02-22T02:18:52.649Z,64.12
2018-02-22T02:19:53.257Z,64.10
2018-02-22T02:20:53.524Z,64.05
2018-02-22T02:21:53.988Z,64.02
2018-02-22T02:24:06.751Z,64.04
2018-02-22T02:25:55.841Z,63.86
2018-02-22T02:26:56.302Z,63.91
2018-02-22T02:29:57.694Z,63.94
2018-02-22T02:30:58.156Z,63.86
2018-02-22T02:31:58.624Z,63.89
2018-02-22T02:32:59.085Z,64.04
2018-02-22T02:33:59.598Z,64.06
2018-02-22T02:35:00.013Z,63.99
2018-02-22T02:36:00.476Z,63.91
2018-02-22T02:37:00.951Z,63.88
2018-02-22T02:38:01.396Z,63.88
2018-02-22T02:39:01.865Z,63.91
2018-02-22T02:41:02.792Z,63.90
2018-02-22T02:42:03.249Z,63.93
2018-02-22T02:43:03.721Z,63.99
2018-02-22T02:44:04.235Z,64.06
2018-02-22T02:45:04.648Z,64.08
2018-02-22T02:47:05.574Z,64.09
2018-02-22T02:48:06.040Z,64.01
2018-02-22T02:49:06.546Z,63.98
2018-02-22T02:50:06.965Z,63.91
2018-02-22T02:51:07.428Z,63.83
2018-02-22T02:52:07.895Z,63.96
2018-02-22T02:53:08.351Z,63.96
2018-02-22T02:54:20.805Z,64.04
2018-02-22T02:56:09.748Z,64.04
2018-02-22T02:57:10.209Z,64.16
2018-02-22T02:58:10.673Z,64.08
2018-02-22T02:59:11.138Z,64.08
2018-02-22T03:00:11.595Z,64.03
2018-02-22T03:01:12.060Z,64.09
2018-02-22T03:02:12.526Z,64.11
2018-02-22T03:03:12.990Z,64.11
2018-02-22T03:04:24.792Z,64.09
2018-02-22T03:05:13.916Z,64.06
2018-02-22T03:06:14.380Z,64.32
2018-02-22T03:07:14.849Z,64.35
2018-02-22T03:10:16.285Z,64.14
2018-02-22T03:11:16.692Z,64.21
2018-02-22T03:12:17.162Z,64.37
2018-02-22T03:13:17.826Z,64.45
2018-02-22T03:14:18.292Z,64.47
2018-02-22T03:15:18.603Z,64.55
2018-02-22T03:16:19.018Z,64.45
2018-02-22T03:17:19.477Z,64.45
2018-02-22T03:18:19.939Z,64.48
2018-02-22T03:19:20.405Z,64.47
2018-02-22T03:20:20.871Z,64.45
2018-02-22T03:21:21.332Z,64.39
2018-02-22T03:22:21.791Z,64.40
2018-02-22T03:23:22.259Z,64.42
2018-02-22T03:24:22.722Z,64.63
2018-02-22T03:25:23.183Z,64.48
2018-02-22T03:26:23.648Z,64.48
2018-02-22T03:28:24.577Z,64.45
2018-02-22T03:29:25.035Z,64.50
2018-02-22T03:30:25.554Z,64.53
2018-02-22T03:31:25.969Z,64.63
2018-02-22T03:32:26.430Z,64.68
2018-02-22T03:33:26.889Z,64.76
2018-02-22T03:34:27.358Z,64.71
2018-02-22T03:35:27.822Z,64.63
2018-02-22T03:36:28.286Z,64.71
2018-02-22T03:37:28.950Z,64.73
2018-02-22T03:38:29.211Z,64.73
2018-02-22T03:39:29.673Z,64.73
2018-02-22T03:40:30.132Z,64.78
2018-02-22T03:41:30.600Z,64.68
2018-02-22T03:42:31.064Z,64.71
2018-02-22T03:43:31.529Z,64.66
2018-02-22T03:44:31.988Z,64.66
2018-02-22T03:45:32.454Z,64.71
2018-02-22T03:46:32.918Z,64.60
2018-02-22T03:47:33.381Z,64.58
2018-02-22T03:48:33.846Z,64.66
2018-02-22T03:49:34.308Z,64.60
2018-02-22T03:50:34.773Z,64.63
2018-02-22T03:51:35.231Z,64.58
2018-02-22T03:52:35.698Z,64.60
2018-02-22T03:53:36.161Z,64.89
2018-02-22T03:55:37.140Z,64.86
2018-02-22T03:56:37.553Z,64.81
2018-02-22T03:57:38.018Z,64.76
2018-02-22T03:58:38.480Z,64.71
2018-02-22T03:59:38.944Z,64.58
2018-02-22T04:01:40.124Z,64.55
2018-02-22T04:02:40.329Z,64.53
2018-02-22T04:03:40.799Z,64.53
2018-02-22T04:05:41.724Z,64.50
2018-02-22T04:06:42.187Z,64.42
2018-02-22T04:07:42.651Z,64.39
2018-02-22T04:08:43.109Z,64.40
2018-02-22T04:09:43.576Z,64.37
2018-02-22T04:10:44.093Z,64.47
2018-02-22T04:11:44.497Z,64.42
2018-02-22T04:12:44.969Z,64.44
2018-02-22T04:13:45.431Z,64.52
2018-02-22T04:14:45.894Z,64.49
2018-02-22T04:16:46.824Z,64.55
2018-02-22T04:17:47.285Z,64.60
2018-02-22T04:18:47.751Z,64.62
2018-02-22T04:19:48.213Z,64.60
2018-02-22T04:20:48.678Z,64.60
2018-02-22T04:21:49.138Z,64.60
2018-02-22T04:22:49.598Z,64.73
2018-02-22T04:23:50.066Z,64.70
2018-02-22T04:24:50.530Z,64.70
2018-02-22T04:26:51.455Z,64.65
2018-02-22T04:27:51.919Z,64.81
2018-02-22T04:28:52.384Z,64.83
2018-02-22T04:30:53.308Z,64.71
2018-02-22T04:31:53.822Z,64.60
2018-02-22T04:32:54.239Z,64.63
2018-02-22T04:33:54.696Z,64.60
2018-02-22T04:34:55.164Z,64.60
2018-02-22T04:35:55.626Z,64.50
2018-02-22T04:36:56.095Z,64.47
2018-02-22T04:37:56.555Z,64.42
2018-02-22T04:38:57.019Z,64.58
2018-02-22T04:39:57.480Z,64.57
2018-02-22T04:40:57.944Z,64.55
2018-02-22T04:42:58.865Z,64.65
2018-02-22T04:43:59.335Z,64.57
2018-02-22T04:44:59.798Z,64.49
2018-02-22T04:46:00.260Z,64.44
2018-02-22T04:47:00.722Z,64.46
2018-02-22T04:48:01.191Z,64.72
2018-02-22T04:49:01.652Z,64.72
2018-02-22T04:50:02.115Z,64.70
2018-02-22T04:51:02.578Z,64.77
2018-02-22T04:52:03.042Z,64.77
2018-02-22T04:54:03.971Z,64.74
2018-02-22T04:55:04.427Z,64.67
2018-02-22T04:56:04.894Z,64.67
2018-02-22T04:58:05.823Z,64.64
2018-02-22T04:59:06.483Z,64.62
2018-02-22T05:00:06.752Z,64.74
2018-02-22T05:02:07.676Z,64.69
2018-02-22T05:03:08.137Z,64.64
2018-02-22T05:04:08.651Z,64.61
2018-02-22T05:05:09.066Z,64.69
2018-02-22T05:06:09.524Z,64.81
2018-02-22T05:07:09.993Z,64.95
2018-02-22T05:08:10.456Z,65.12
2018-02-22T05:09:10.923Z,65.04
2018-02-22T05:11:11.845Z,65.08
2018-02-22T05:12:12.311Z,65.26
2018-02-22T05:13:12.774Z,65.28
2018-02-22T05:14:13.241Z,65.26
2018-02-22T05:15:13.695Z,65.31
2018-02-22T05:16:14.162Z,65.46
2018-02-22T05:17:14.635Z,65.54
2018-02-22T05:18:15.089Z,65.46
2018-02-22T05:19:15.549Z,65.36
2018-02-22T05:20:16.016Z,65.49
2018-02-22T05:22:16.941Z,65.36
2018-02-22T05:23:17.401Z,65.36
2018-02-22T05:24:17.870Z,65.29
2018-02-22T05:25:18.334Z,65.46
2018-02-22T05:26:18.795Z,65.46
2018-02-22T05:27:19.310Z,65.31
2018-02-22T05:28:19.725Z,65.26
2018-02-22T05:29:20.204Z,65.24
2018-02-22T05:30:20.652Z,65.26
2018-02-22T05:31:21.115Z,65.29
2018-02-22T05:32:21.577Z,65.18
2018-02-22T05:33:22.034Z,65.10
2018-02-22T05:34:22.556Z,65.13
2018-02-22T05:35:22.967Z,65.05
2018-02-22T05:36:23.432Z,65.00
2018-02-22T05:37:23.944Z,64.92
2018-02-22T05:38:24.356Z,64.90
2018-02-22T05:39:24.818Z,64.82
2018-02-22T05:40:25.283Z,64.82
2018-02-22T05:41:25.745Z,64.82
2018-02-22T05:42:26.312Z,64.82
2018-02-22T05:43:26.669Z,64.98
2018-02-22T05:44:27.136Z,65.12
2018-02-22T05:45:27.600Z,65.00
2018-02-22T05:46:28.062Z,65.00
2018-02-22T05:47:28.525Z,65.00
2018-02-22T05:48:28.988Z,65.05
2018-02-22T05:49:29.452Z,65.00
2018-02-22T05:50:29.916Z,64.97
2018-02-22T05:51:30.379Z,64.92
2018-02-22T05:52:30.892Z,64.97
2018-02-22T05:53:31.305Z,65.02
2018-02-22T05:55:32.230Z,65.00
2018-02-22T05:56:32.693Z,64.99
2018-02-22T05:57:44.940Z,65.15
2018-02-22T05:58:33.626Z,65.20
2018-02-22T05:59:34.084Z,65.36
2018-02-22T06:00:34.547Z,65.30
2018-02-22T06:01:35.012Z,65.30
2018-02-22T06:05:36.864Z,65.72
2018-02-22T06:06:37.330Z,65.64
2018-02-22T06:07:37.835Z,65.64
2018-02-22T06:08:38.253Z,65.61
2018-02-22T06:09:38.716Z,65.61
2018-02-22T06:10:39.178Z,65.56
2018-02-22T06:11:39.646Z,65.67
2018-02-22T06:12:40.111Z,65.62
2018-02-22T06:14:41.027Z,65.67
2018-02-22T06:15:41.497Z,65.74
2018-02-22T06:16:41.961Z,65.77
2018-02-22T06:17:42.423Z,65.65
2018-02-22T06:18:42.888Z,65.67
2018-02-22T06:19:43.346Z,65.65
2018-02-22T06:20:43.811Z,65.67
2018-02-22T06:21:44.276Z,65.64
2018-02-22T06:22:44.789Z,65.60
2018-02-22T06:23:45.202Z,65.55
2018-02-22T06:24:45.667Z,65.62
2018-02-22T06:25:46.122Z,65.70
2018-02-22T06:26:46.591Z,65.83
2018-02-22T06:27:58.992Z,65.75
2018-02-22T06:28:47.517Z,65.70
2018-02-22T06:29:47.982Z,65.72
2018-02-22T06:32:49.366Z,65.73
2018-02-22T06:33:49.833Z,65.78
2018-02-22T06:34:50.296Z,65.96
2018-02-22T06:35:50.760Z,65.91
2018-02-22T06:36:51.223Z,65.86
2018-02-22T06:37:51.940Z,65.96
2018-02-22T06:39:52.612Z,65.86
2018-02-22T06:40:53.124Z,65.84
2018-02-22T06:41:53.544Z,65.82
2018-02-22T06:42:54.053Z,65.79
2018-02-22T06:43:54.470Z,65.79
2018-02-22T06:45:55.392Z,65.77
2018-02-22T06:46:55.856Z,65.77
2018-02-22T06:47:56.316Z,65.75
2018-02-22T06:48:56.783Z,65.75
2018-02-22T06:49:57.249Z,65.80
2018-02-22T06:50:57.708Z,65.87
2018-02-22T06:51:58.173Z,65.85
2018-02-22T06:52:58.686Z,65.98
2018-02-22T06:53:59.100Z,66.06
2018-02-22T06:54:59.563Z,66.08
2018-02-22T06:56:00.027Z,66.09
2018-02-22T06:57:00.488Z,66.04
2018-02-22T06:58:01.000Z,66.01
2018-02-22T06:59:01.416Z,66.01
2018-02-22T07:00:01.879Z,65.99
2018-02-22T07:01:02.343Z,65.97
2018-02-22T07:02:02.807Z,65.94
2018-02-22T07:03:03.268Z,65.90
2018-02-22T07:04:03.727Z,65.90
2018-02-22T07:05:04.197Z,65.90
2018-02-22T07:06:04.661Z,65.90
2018-02-22T07:07:05.122Z,65.90
2018-02-22T07:08:05.637Z,65.88
2018-02-22T07:09:06.051Z,65.91
2018-02-22T07:10:06.511Z,66.14
2018-02-22T07:11:06.981Z,66.34
2018-02-22T07:12:07.644Z,66.32
2018-02-22T07:13:07.950Z,66.33
2018-02-22T07:14:08.369Z,66.33
2018-02-22T07:15:08.830Z,66.33
2018-02-22T07:17:09.758Z,66.39
2018-02-22T07:18:10.222Z,66.37
2018-02-22T07:19:10.686Z,66.42
2018-02-22T07:20:11.142Z,66.43
2018-02-22T07:21:11.613Z,66.40
2018-02-22T07:22:12.076Z,66.41
2018-02-22T07:23:16.789Z,66.41
2018-02-22T07:24:12.998Z,66.44
2018-02-22T07:25:13.467Z,66.42
2018-02-22T07:26:13.932Z,66.43
2018-02-22T07:27:14.395Z,66.46
2018-02-22T07:29:15.324Z,66.42
2018-02-22T07:30:15.987Z,66.53
2018-02-22T07:31:16.242Z,66.59
2018-02-22T07:32:16.713Z,66.75
2018-02-22T07:33:17.226Z,66.87
2018-02-22T07:34:17.641Z,66.88
2018-02-22T07:35:18.097Z,67.01
2018-02-22T07:36:18.568Z,67.13
2018-02-22T07:37:19.027Z,67.24
2018-02-22T07:38:19.497Z,67.30
2018-02-22T07:39:19.959Z,67.34
2018-02-22T07:40:20.423Z,67.35
2018-02-22T07:41:20.888Z,67.41
2018-02-22T07:42:21.353Z,67.43
2018-02-22T07:43:21.816Z,67.44
2018-02-22T07:45:22.748Z,67.26
2018-02-22T07:46:23.210Z,67.32
2018-02-22T07:47:23.673Z,67.28
2018-02-22T07:48:24.131Z,67.25
2018-02-22T07:49:24.606Z,67.21
2018-02-22T07:50:25.068Z,67.25
2018-02-22T07:51:25.534Z,67.19
2018-02-22T07:52:25.999Z,67.10
2018-02-22T07:54:28.179Z,67.03
2018-02-22T07:55:27.385Z,66.97
2018-02-22T07:56:27.855Z,66.80
2018-02-22T07:57:28.321Z,66.72
2018-02-22T07:58:28.785Z,66.63
2018-02-22T07:59:29.293Z,66.64
2018-02-22T08:01:30.180Z,66.39
2018-02-22T08:04:31.577Z,66.17
2018-02-22T08:05:32.035Z,66.16
2018-02-22T08:06:32.508Z,66.09
2018-02-22T08:07:32.977Z,65.93
2018-02-22T08:08:33.439Z,65.86
2018-02-22T08:10:34.368Z,65.68
2018-02-22T08:11:34.832Z,65.62
2018-02-22T08:12:35.502Z,65.55
2018-02-22T08:13:35.765Z,65.30
2018-02-22T08:14:36.230Z,65.29
2018-02-22T08:15:36.698Z,65.06
2018-02-22T08:16:37.160Z,64.89
2018-02-22T08:17:37.629Z,64.75
2018-02-22T08:18:38.088Z,64.57
2018-02-22T08:19:38.763Z,64.34
2018-02-22T08:21:39.541Z,64.04
2018-02-22T08:22:39.957Z,63.89
2018-02-22T08:23:40.421Z,63.82
2018-02-22T08:24:40.889Z,63.64
2018-02-22T08:25:41.354Z,63.57
2018-02-22T08:26:41.871Z,63.61
2018-02-22T08:27:42.286Z,63.65
2018-02-22T08:28:42.747Z,63.66
2018-02-22T08:29:43.219Z,63.67
2018-02-22T08:30:43.685Z,63.71
2018-02-22T08:31:44.151Z,63.61
2018-02-22T08:32:44.618Z,63.60
2018-02-22T08:33:45.084Z,63.50
2018-02-22T08:34:45.553Z,63.54
2018-02-22T08:35:46.011Z,63.45
2018-02-22T08:36:46.535Z,63.36
2018-02-22T08:37:46.953Z,63.23
2018-02-22T08:38:47.421Z,63.11
2018-02-22T08:39:47.883Z,62.96
2018-02-22T08:40:48.354Z,62.87
2018-02-22T08:41:48.819Z,62.42
2018-02-22T08:43:49.955Z,62.28
2018-02-22T08:44:50.215Z,62.08
2018-02-22T08:45:50.688Z,62.03
2018-02-22T08:49:52.555Z,61.28
2018-02-22T08:50:53.024Z,61.10
2018-02-22T08:51:53.502Z,60.98
2018-02-22T08:52:54.008Z,60.68
2018-02-22T08:53:54.628Z,60.44
2018-02-22T08:54:54.893Z,60.43
2018-02-22T08:55:55.359Z,60.24
2018-02-22T08:56:55.827Z,60.00
2018-02-22T08:57:56.294Z,59.79
2018-02-22T08:58:56.763Z,59.49
2018-02-22T09:00:57.700Z,59.42
2018-02-22T09:01:58.167Z,59.20
2018-02-22T09:03:59.152Z,59.24
2018-02-22T09:04:59.569Z,59.02
2018-02-22T09:06:00.042Z,58.84
2018-02-22T09:07:00.506Z,58.60
2018-02-22T09:08:00.972Z,58.83
2018-02-22T09:10:01.908Z,58.89
2018-02-22T09:11:02.375Z,58.93
2018-02-22T09:12:03.042Z,59.00
2018-02-22T09:13:03.320Z,58.95
2018-02-22T09:14:15.168Z,58.93
2018-02-22T09:15:04.248Z,58.86
2018-02-22T09:16:04.712Z,59.01
2018-02-22T09:17:05.186Z,59.10
2018-02-22T09:19:06.122Z,59.09
2018-02-22T09:20:06.591Z,59.27
2018-02-22T09:21:07.059Z,59.14
2018-02-22T09:22:07.528Z,59.12
2018-02-22T09:23:07.993Z,59.16
2018-02-22T09:24:08.517Z,59.29
2018-02-22T09:25:08.935Z,59.18
2018-02-22T09:27:09.870Z,59.10
2018-02-22T09:28:10.341Z,58.88
2018-02-22T09:29:10.861Z,58.58
2018-02-22T09:30:11.279Z,58.48
2018-02-22T09:31:11.951Z,58.26
2018-02-22T09:32:12.216Z,57.91
2018-02-22T09:34:13.152Z,57.52
2018-02-22T09:35:13.625Z,57.36
2018-02-22T09:36:14.093Z,57.33
2018-02-22T09:37:14.564Z,56.97
2018-02-22T09:38:15.027Z,56.72
2018-02-22T09:39:27.131Z,56.36
2018-02-22T09:40:15.970Z,56.13
2018-02-22T09:41:16.438Z,56.13
2018-02-22T09:42:17.109Z,56.00
2018-02-22T09:44:29.379Z,55.51
2018-02-22T09:45:18.308Z,55.37
2018-02-22T09:46:18.784Z,55.20
2018-02-22T09:47:19.254Z,54.77
2018-02-22T09:48:19.723Z,54.92
2018-02-22T09:49:20.240Z,54.89
2018-02-22T09:50:20.673Z,54.49
2018-02-22T09:52:21.601Z,54.41
2018-02-22T09:53:22.069Z,54.29
2018-02-22T09:54:34.175Z,54.41
2018-02-22T09:55:23.012Z,54.15
2018-02-22T09:56:23.476Z,53.86
2018-02-22T09:58:24.416Z,53.77
2018-02-22T09:59:24.939Z,53.83
2018-02-22T10:00:25.357Z,53.97
2018-02-22T10:01:25.830Z,53.86
2018-02-22T10:03:26.765Z,53.77
2018-02-22T10:05:27.906Z,53.46
2018-02-22T10:06:28.173Z,53.35
2018-02-22T10:07:28.638Z,53.29
2018-02-22T10:09:29.580Z,53.12
2018-02-22T10:10:30.051Z,53.15
2018-02-22T10:11:30.528Z,53.24
2018-02-22T10:12:31.031Z,53.09
2018-02-22T10:13:31.460Z,52.95
2018-02-22T10:14:31.983Z,52.89
2018-02-22T10:15:32.400Z,52.78
2018-02-22T10:16:32.867Z,52.72
2018-02-22T10:17:33.338Z,52.69
2018-02-22T10:18:33.809Z,52.66
2018-02-22T10:20:34.749Z,52.43
2018-02-22T10:21:35.219Z,52.26
2018-02-22T10:22:35.689Z,52.14
2018-02-22T10:23:36.157Z,52.06
2018-02-22T10:24:36.678Z,52.03
2018-02-22T10:25:37.097Z,51.85
2018-02-22T10:26:37.568Z,52.03
2018-02-22T10:27:38.236Z,51.83
2018-02-22T10:28:38.509Z,51.74
2018-02-22T10:29:38.977Z,51.80
2018-02-22T10:30:39.657Z,51.77
2018-02-22T10:31:39.917Z,51.99
2018-02-22T10:32:40.388Z,51.88
2018-02-22T10:33:40.859Z,51.83
2018-02-22T10:35:41.796Z,51.68
2018-02-22T10:36:42.267Z,51.78
2018-02-22T10:37:42.736Z,51.68
2018-02-22T10:44:39.175Z,50.43
2018-02-22T10:45:39.591Z,50.21
2018-02-22T10:46:40.067Z,50.07
2018-02-22T10:47:40.528Z,49.84
2018-02-22T10:48:41.003Z,49.50
2018-02-22T10:49:41.475Z,49.30
2018-02-22T10:51:42.418Z,48.82
2018-02-22T10:52:42.886Z,48.50
2018-02-22T10:53:43.360Z,48.19
2018-02-22T10:54:43.823Z,47.90
2018-02-22T10:56:44.770Z,47.44
2018-02-22T10:57:45.443Z,47.12
2018-02-22T10:58:45.713Z,46.83
2018-02-22T11:00:46.658Z,46.50
2018-02-22T11:01:47.128Z,46.05
2018-02-22T11:02:47.595Z,45.64
2018-02-22T11:03:48.069Z,45.54
2018-02-22T11:05:49.014Z,44.91
2018-02-22T11:06:49.482Z,44.73
2018-02-22T11:07:49.953Z,44.53
2018-02-22T11:08:50.424Z,44.23
2018-02-22T11:10:02.533Z,43.93
2018-02-22T11:10:51.372Z,43.69
2018-02-22T11:11:51.836Z,43.52
2018-02-22T11:12:52.312Z,43.21
2018-02-22T11:14:53.297Z,42.82
2018-02-22T11:15:53.723Z,42.55
2018-02-22T11:16:54.195Z,42.37
2018-02-22T11:17:54.667Z,42.19
2018-02-22T11:18:55.340Z,42.00
2018-02-22T11:20:56.084Z,41.55
2018-02-22T11:21:56.550Z,41.34
2018-02-22T11:22:57.227Z,41.25
2018-02-22T11:23:57.497Z,40.98
2018-02-22T11:25:58.642Z,40.61
2018-02-22T11:26:58.911Z,40.49
2018-02-22T11:27:59.423Z,40.25
2018-02-22T11:28:59.852Z,40.00
2018-02-22T11:30:00.326Z,39.81
2018-02-22T11:31:12.487Z,39.66
2018-02-22T11:32:01.270Z,39.53
2018-02-22T11:33:01.745Z,39.44
2018-02-22T11:34:02.215Z,39.35
2018-02-22T11:35:02.687Z,39.19
2018-02-22T11:36:03.209Z,39.16
2018-02-22T11:37:03.629Z,39.10
2018-02-22T11:38:04.102Z,39.00
2018-02-22T11:39:04.573Z,39.25
2018-02-22T11:40:05.046Z,39.28
2018-02-22T11:41:05.769Z,39.31
2018-02-22T11:43:06.461Z,39.24
2018-02-22T11:45:07.406Z,39.42
2018-02-22T11:46:07.929Z,39.61
2018-02-22T11:47:08.350Z,39.83
2018-02-22T11:48:08.820Z,39.85
2018-02-22T11:49:09.293Z,39.91
2018-02-22T11:50:09.766Z,40.09
2018-02-22T11:51:10.290Z,40.31
2018-02-22T11:52:10.715Z,40.50
2018-02-22T11:53:11.183Z,40.55
2018-02-22T11:54:11.653Z,40.67
2018-02-22T11:55:12.130Z,40.76
2018-02-22T11:56:24.541Z,40.79
2018-02-22T11:57:13.067Z,41.00
2018-02-22T11:58:13.586Z,41.25
2018-02-22T11:59:14.016Z,41.18
2018-02-22T12:00:14.695Z,41.24
2018-02-22T12:01:15.214Z,41.33
2018-02-22T12:02:15.435Z,41.48
2018-02-22T12:03:15.908Z,41.55
2018-02-22T12:04:16.379Z,41.63
2018-02-22T12:05:16.854Z,41.79
2018-02-22T12:06:29.909Z,41.97
2018-02-22T12:07:17.798Z,41.97
2018-02-22T12:08:18.472Z,42.15
2018-02-22T12:09:18.743Z,42.12
2018-02-22T12:10:19.214Z,42.21
2018-02-22T12:11:19.768Z,42.36
2018-02-22T12:13:20.632Z,42.45
2018-02-22T12:14:21.109Z,42.44
2018-02-22T12:16:22.052Z,43.00
2018-02-22T12:17:22.524Z,42.90
2018-02-22T12:18:22.990Z,42.96
2018-02-22T12:19:23.473Z,42.99
2018-02-22T12:20:23.944Z,43.17
2018-02-22T12:22:24.888Z,43.35
2018-02-22T12:23:25.362Z,43.35
2018-02-22T12:25:26.306Z,43.68
2018-02-22T12:26:26.828Z,43.81
2018-02-22T12:28:27.726Z,43.98
2018-02-22T12:29:28.195Z,44.20
2018-02-22T12:30:28.671Z,44.38
2018-02-22T12:32:29.668Z,44.63
2018-02-22T12:33:30.090Z,44.56
2018-02-22T12:34:30.560Z,44.59
2018-02-22T12:35:31.239Z,44.65
2018-02-22T12:36:31.509Z,44.83
2018-02-22T12:40:33.395Z,44.92
2018-02-22T12:41:33.873Z,44.91
2018-02-22T12:42:34.347Z,44.91
2018-02-22T12:43:34.818Z,44.91
2018-02-22T12:44:35.292Z,44.75
2018-02-22T12:45:35.966Z,44.81
2018-02-22T12:46:36.237Z,44.84
2018-02-22T12:47:36.705Z,44.96
2018-02-22T12:48:37.185Z,45.05
2018-02-22T12:49:37.656Z,45.05
2018-02-22T12:50:38.129Z,45.02
2018-02-22T12:51:38.600Z,45.01
2018-02-22T12:52:39.076Z,45.07
2018-02-22T12:53:39.547Z,45.07
2018-02-22T12:54:40.021Z,45.13
2018-02-22T12:55:40.494Z,45.19
2018-02-22T12:56:40.969Z,45.31
2018-02-22T12:57:41.444Z,45.22
2018-02-22T12:58:41.913Z,45.37
2018-02-22T12:59:42.385Z,45.37
2018-02-22T13:00:42.860Z,45.37
2018-02-22T13:01:43.331Z,45.30
2018-02-22T13:03:44.329Z,45.17
2018-02-22T13:04:44.747Z,45.17
2018-02-22T13:05:45.227Z,45.23
2018-02-22T13:07:46.170Z,45.23
2018-02-22T13:08:46.643Z,45.29
2018-02-22T13:09:47.111Z,45.35
2018-02-22T13:11:48.062Z,45.29
2018-02-22T13:12:48.735Z,45.41
2018-02-22T13:14:49.480Z,45.32
2018-02-22T13:15:49.956Z,45.56
2018-02-22T13:16:50.421Z,45.41
2018-02-22T13:17:50.898Z,45.37
2018-02-22T13:18:51.771Z,45.40
2018-02-22T13:19:51.849Z,45.43
2018-02-22T13:20:52.319Z,45.49
2018-02-22T13:21:52.793Z,45.58
2018-02-22T13:22:53.259Z,45.86
2018-02-22T13:23:53.792Z,46.01
2018-02-22T13:24:54.211Z,45.80
2018-02-22T13:25:54.681Z,45.98
2018-02-22T13:26:55.154Z,46.01
2018-02-22T13:27:55.628Z,45.83
2018-02-22T13:28:56.096Z,46.16
2018-02-22T13:29:56.573Z,46.07
2018-02-22T13:30:57.047Z,45.98
2018-02-22T13:31:57.723Z,46.19
2018-02-22T13:32:57.993Z,45.94
2018-02-22T13:33:58.510Z,45.76
2018-02-22T13:34:58.938Z,45.67
2018-02-22T13:35:59.409Z,45.76
2018-02-22T13:36:59.884Z,45.91
2018-02-22T13:38:00.349Z,46.13
2018-02-22T13:39:01.030Z,46.09
2018-02-22T13:40:01.300Z,46.22
2018-02-22T13:41:01.774Z,46.06
2018-02-22T13:42:02.248Z,45.97
2018-02-22T13:43:02.719Z,46.06
2018-02-22T13:44:03.191Z,46.12
2018-02-22T13:45:03.665Z,46.12
2018-02-22T13:46:04.139Z,46.06
2018-02-22T13:47:04.610Z,46.18
2018-02-22T13:48:05.080Z,45.99
2018-02-22T13:49:17.345Z,45.93
2018-02-22T13:50:06.025Z,46.17
2018-02-22T13:51:06.501Z,46.17
2018-02-22T13:52:06.973Z,46.36
2018-02-22T13:53:07.445Z,46.51
2018-02-22T13:54:07.968Z,46.47
2018-02-22T13:55:08.390Z,46.50
2018-02-22T13:56:08.862Z,46.56
2018-02-22T13:57:09.336Z,46.62
2018-02-22T13:58:09.808Z,46.74
2018-02-22T13:59:10.527Z,46.77
2018-02-22T14:01:11.221Z,46.82
2018-02-22T14:02:11.698Z,46.76
2018-02-22T14:03:12.170Z,46.82
2018-02-22T14:05:13.117Z,46.82
2018-02-22T14:07:14.061Z,46.81
2018-02-22T14:08:14.532Z,46.81
2018-02-22T14:09:15.057Z,46.93
2018-02-22T14:10:15.478Z,46.87
2018-02-22T14:11:15.950Z,46.83
2018-02-22T14:12:16.424Z,46.92
2018-02-22T14:13:16.896Z,46.95
2018-02-22T14:14:17.362Z,46.92
2018-02-22T14:15:17.840Z,46.98
2018-02-22T14:16:18.312Z,46.98
2018-02-22T14:17:18.787Z,47.09
2018-02-22T14:18:19.260Z,47.06
2018-02-22T14:19:19.728Z,47.09
2018-02-22T14:20:20.203Z,47.12
2018-02-22T14:21:20.676Z,47.09
2018-02-22T14:22:21.148Z,47.09
2018-02-22T14:23:21.623Z,47.11
2018-02-22T14:24:22.091Z,47.08
2018-02-22T14:25:22.565Z,47.05
2018-02-22T14:26:23.033Z,47.14
2018-02-22T14:27:23.507Z,47.28
2018-02-22T14:28:23.983Z,47.37
2018-02-22T14:29:24.455Z,47.43
2018-02-22T14:30:24.917Z,47.49
2018-02-22T14:31:25.738Z,47.61
2018-02-22T14:33:26.345Z,47.72
2018-02-22T14:34:38.403Z,47.81
2018-02-22T14:35:27.285Z,47.84
2018-02-22T14:36:27.759Z,47.92
2018-02-22T14:37:28.231Z,47.92
2018-02-22T14:39:29.171Z,48.03
2018-02-22T14:40:29.651Z,48.03